Time;durP1;ratioP1;P1;durP2;ratioP2;P2;SDS_P1;SDS_P2;PMS_P1;PMS_P2;Temp;Humidity;BMP_temperature;BMP_pressure;BME280_temperature;BME280_humidity;BME280_pressure;Samples;Min_cycle;Max_cycle;Signal;HPM_P1;HPM_P2
2021/09/05 00:00:11;;;;;;;15.38;7.03;;;;;;;;;;6178942;23;20243;-92
2021/09/05 00:03:16;;;;;;;12.60;6.95;;;;;;;;;;6180575;23;20620;-92
2021/09/05 00:06:22;;;;;;;20.98;10.45;;;;;;;;;;6180483;23;20250;-92
2021/09/05 00:09:27;;;;;;;19.35;9.45;;;;;;;;;;6178761;23;20171;-91
2021/09/05 00:12:32;;;;;;;11.98;6.28;;;;;;;;;;6179209;23;20192;-91
2021/09/05 00:15:37;;;;;;;15.68;6.88;;;;;;;;;;6178530;23;20180;-91
2021/09/05 00:18:42;;;;;;;10.18;6.35;;;;;;;;;;6179014;23;20160;-92
2021/09/05 00:21:49;;;;;;;13.40;6.78;;;;;;;;;;6179395;23;20302;-90
2021/09/05 00:24:54;;;;;;;16.25;7.50;;;;;;;;;;6179152;23;20500;-90
2021/09/05 00:28:00;;;;;;;16.20;6.90;;;;;;;;;;6180148;23;20155;-90
2021/09/05 00:31:05;;;;;;;12.88;6.72;;;;;;;;;;6179766;23;20628;-92
2021/09/05 00:34:10;;;;;;;13.32;6.78;;;;;;;;;;6179191;23;20191;-91
2021/09/05 00:37:17;;;;;;;15.38;7.32;;;;;;;;;;6179297;23;20757;-90
2021/09/05 00:40:22;;;;;;;12.13;7.00;;;;;;;;;;6179157;23;20168;-92
2021/09/05 00:43:27;;;;;;;13.88;6.90;;;;;;;;;;6179021;23;20262;-91
2021/09/05 00:46:33;;;;;;;11.30;6.70;;;;;;;;;;6179889;23;20164;-91
2021/09/05 00:49:38;;;;;;;13.77;7.30;;;;;;;;;;6178463;23;20180;-91
2021/09/05 00:52:44;;;;;;;16.52;7.70;;;;;;;;;;6177724;23;20187;-91
2021/09/05 00:55:49;;;;;;;11.23;6.63;;;;;;;;;;6179890;23;20176;-92
2021/09/05 00:58:55;;;;;;;13.98;6.63;;;;;;;;;;6178737;23;20288;-89
2021/09/05 01:02:02;;;;;;;13.05;7.03;;;;;;;;;;6179187;23;20168;-91
2021/09/05 01:05:07;;;;;;;15.48;6.70;;;;;;;;;;6178645;23;20168;-91
2021/09/05 01:08:14;;;;;;;12.27;7.03;;;;;;;;;;6169606;23;20187;-90
2021/09/05 01:11:21;;;;;;;12.60;6.55;;;;;;;;;;6170144;23;20171;-91
2021/09/05 01:14:29;;;;;;;12.93;6.88;;;;;;;;;;6168003;23;20618;-90
2021/09/05 01:17:37;;;;;;;14.00;6.80;;;;;;;;;;6169982;23;20209;-92
2021/09/05 01:21:05;;;;;;;15.07;6.68;;;;;;;;;;6170052;23;20719;-89
2021/09/05 01:24:42;;;;;;;12.13;7.03;;;;;;;;;;6169934;23;20168;-91
2021/09/05 01:28:12;;;;;;;11.82;6.63;;;;;;;;;;6169957;23;20195;-90
2021/09/05 01:31:39;;;;;;;12.05;6.43;;;;;;;;;;6168230;23;20247;-93
2021/09/05 01:35:07;;;;;;;15.73;7.00;;;;;;;;;;6150245;23;20569;-92
2021/09/05 01:38:37;;;;;;;12.38;7.18;;;;;;;;;;6169006;23;20231;-92
2021/09/05 01:42:05;;;;;;;11.65;6.53;;;;;;;;;;6168989;23;20160;-91
2021/09/05 01:45:32;;;;;;;12.65;6.43;;;;;;;;;;6168890;23;20274;-90
2021/09/05 01:49:05;;;;;;;15.23;7.32;;;;;;;;;;6167787;23;20176;-94
2021/09/05 01:52:36;;;;;;;13.27;6.68;;;;;;;;;;6170096;23;20220;-92
2021/09/05 01:56:00;;;;;;;13.88;7.03;;;;;;;;;;6169217;23;20169;-91
2021/09/05 01:59:22;;;;;;;13.38;6.63;;;;;;;;;;6168380;23;20177;-92
2021/09/05 02:02:48;;;;;;;12.00;6.55;;;;;;;;;;6170452;23;20184;-92
2021/09/05 02:06:27;;;;;;;13.82;6.38;;;;;;;;;;6168360;23;20314;-91
2021/09/05 02:10:11;;;;;;;12.82;6.95;;;;;;;;;;6169984;23;20249;-91
2021/09/05 02:13:39;;;;;;;14.80;7.80;;;;;;;;;;6172006;23;20204;-91
2021/09/05 02:17:11;;;;;;;15.15;7.20;;;;;;;;;;6167825;23;20177;-92
2021/09/05 02:20:43;;;;;;;13.57;7.63;;;;;;;;;;6167748;23;20191;-93
2021/09/05 02:24:07;;;;;;;15.75;7.65;;;;;;;;;;6171942;23;20169;-92
2021/09/05 02:27:32;;;;;;;14.13;7.90;;;;;;;;;;6167708;23;20192;-93
2021/09/05 02:30:56;;;;;;;11.68;7.00;;;;;;;;;;6170901;23;20242;-91
2021/09/05 02:34:20;;;;;;;16.02;7.95;;;;;;;;;;6169559;23;20196;-92
2021/09/05 02:37:46;;;;;;;19.00;8.45;;;;;;;;;;6168804;23;20172;-91
2021/09/05 02:41:17;;;;;;;14.82;8.27;;;;;;;;;;6166388;23;20532;-91
2021/09/05 02:44:54;;;;;;;14.40;7.32;;;;;;;;;;6168133;23;20623;-91
2021/09/05 02:48:35;;;;;;;18.25;8.60;;;;;;;;;;6082168;23;20183;-91
2021/09/05 02:52:00;;;;;;;15.02;8.30;;;;;;;;;;6168584;23;20598;-92
2021/09/05 02:55:41;;;;;;;18.52;8.35;;;;;;;;;;6171953;23;20196;-90
2021/09/05 02:59:05;;;;;;;14.15;8.23;;;;;;;;;;6170965;23;20193;-91
2021/09/05 03:02:30;;;;;;;15.88;7.75;;;;;;;;;;6170071;23;20176;-91
2021/09/05 03:06:03;;;;;;;16.42;7.63;;;;;;;;;;6170135;23;20172;-92
2021/09/05 03:09:47;;;;;;;12.85;7.20;;;;;;;;;;6079827;23;20510;-93
2021/09/05 03:13:13;;;;;;;14.55;7.63;;;;;;;;;;6074973;23;20151;-94
2021/09/05 03:16:43;;;;;;;10.43;6.72;;;;;;;;;;6170015;23;20173;-92
2021/09/05 03:20:09;;;;;;;15.38;7.20;;;;;;;;;;6170511;23;20196;-91
2021/09/05 03:23:45;;;;;;;14.20;7.07;;;;;;;;;;6170111;23;20172;-92
2021/09/05 03:27:19;;;;;;;17.50;7.97;;;;;;;;;;6168724;23;20215;-92
2021/09/05 03:30:48;;;;;;;15.10;7.50;;;;;;;;;;6167106;23;20169;-92
2021/09/05 03:34:13;;;;;;;11.75;7.20;;;;;;;;;;6168531;23;20200;-92
2021/09/05 03:37:36;;;;;;;14.35;7.10;;;;;;;;;;6167577;23;20316;-93
2021/09/05 03:41:14;;;;;;;14.38;7.50;;;;;;;;;;6167894;23;20168;-91
2021/09/05 03:44:41;;;;;;;12.48;7.03;;;;;;;;;;6168696;23;20265;-93
2021/09/05 03:48:07;;;;;;;16.50;6.50;;;;;;;;;;6170222;23;20169;-92
2021/09/05 03:51:32;;;;;;;12.50;6.50;;;;;;;;;;6168746;23;20168;-92
2021/09/05 03:54:38;;;;;;;16.90;6.57;;;;;;;;;;6166948;23;20192;-92
2021/09/05 03:57:46;;;;;;;12.90;6.70;;;;;;;;;;6169094;23;20172;-91
2021/09/05 04:01:29;;;;;;;12.70;7.13;;;;;;;;;;6166943;23;20172;-90
2021/09/05 04:04:49;;;;;;;13.77;7.32;;;;;;;;;;6169099;23;20254;-90
2021/09/05 04:08:12;;;;;;;12.32;7.03;;;;;;;;;;6168403;23;20191;-92
2021/09/05 04:11:17;;;;;;;14.20;7.07;;;;;;;;;;6166560;23;20172;-92
2021/09/05 04:14:33;;;;;;;16.52;7.30;;;;;;;;;;6167795;23;20204;-92
2021/09/05 04:17:38;;;;;;;16.83;7.75;;;;;;;;;;6167780;23;20288;-89
2021/09/05 04:20:44;;;;;;;24.77;10.88;;;;;;;;;;6165700;23;20264;-90
2021/09/05 04:23:49;;;;;;;166.30;73.90;;;;;;;;;;6166259;23;20152;-91
2021/09/05 04:26:54;;;;;;;18.00;8.25;;;;;;;;;;6165511;23;20171;-91
2021/09/05 04:29:59;;;;;;;18.38;8.10;;;;;;;;;;6167175;23;20172;-91
2021/09/05 04:33:06;;;;;;;16.58;7.28;;;;;;;;;;6163412;23;20224;-92
2021/09/05 04:36:13;;;;;;;25.65;7.95;;;;;;;;;;6164324;23;20172;-90
2021/09/05 04:39:17;;;;;;;17.58;7.65;;;;;;;;;;6166022;23;20160;-91
2021/09/05 04:42:22;;;;;;;14.52;7.30;;;;;;;;;;6165496;23;20207;-92
2021/09/05 04:45:27;;;;;;;13.38;7.80;;;;;;;;;;6167245;23;20168;-93
2021/09/05 04:48:32;;;;;;;26.42;7.30;;;;;;;;;;6168342;23;20320;-92
2021/09/05 04:51:39;;;;;;;16.58;7.70;;;;;;;;;;6167890;23;20616;-91
2021/09/05 04:54:44;;;;;;;14.00;7.78;;;;;;;;;;6167687;23;20200;-91
2021/09/05 04:57:50;;;;;;;15.65;8.10;;;;;;;;;;6167627;23;20169;-93
2021/09/05 05:00:55;;;;;;;18.77;8.75;;;;;;;;;;6168346;23;20173;-90
2021/09/05 05:03:59;;;;;;;14.50;8.23;;;;;;;;;;6168092;23;20168;-92
2021/09/05 05:07:06;;;;;;;17.05;8.40;;;;;;;;;;6169335;23;20176;-91
2021/09/05 05:10:11;;;;;;;17.48;8.80;;;;;;;;;;6182297;23;20204;-93
2021/09/05 05:13:16;;;;;;;20.23;7.88;;;;;;;;;;6181185;23;20172;-93
2021/09/05 05:16:22;;;;;;;13.57;7.68;;;;;;;;;;6181736;23;20172;-91
2021/09/05 05:19:27;;;;;;;15.20;8.38;;;;;;;;;;6181635;23;20624;-91
2021/09/05 05:22:34;;;;;;;14.98;8.30;;;;;;;;;;6182104;23;20215;-93
2021/09/05 05:25:39;;;;;;;18.33;7.80;;;;;;;;;;6180689;23;20244;-91
2021/09/05 05:28:44;;;;;;;14.27;8.20;;;;;;;;;;6180640;23;20188;-91
2021/09/05 05:31:50;;;;;;;16.95;8.23;;;;;;;;;;6180495;23;20220;-91
2021/09/05 05:34:55;;;;;;;17.13;8.00;;;;;;;;;;6180978;23;20335;-92
2021/09/05 05:38:07;;;;;;;19.00;7.88;;;;;;;;;;6181021;23;20192;-91
2021/09/05 05:41:14;;;;;;;18.83;8.55;;;;;;;;;;6179927;23;20172;-93
2021/09/05 05:44:20;;;;;;;17.98;8.07;;;;;;;;;;6180047;23;20260;-92
2021/09/05 05:47:26;;;;;;;17.05;7.97;;;;;;;;;;6178679;23;20171;-90
2021/09/05 05:50:32;;;;;;;13.68;7.57;;;;;;;;;;6179058;23;20618;-90
2021/09/05 05:53:46;;;;;;;15.60;8.60;;;;;;;;;;6180858;23;20180;-93
2021/09/05 05:56:51;;;;;;;13.90;8.25;;;;;;;;;;6179908;23;20711;-91
2021/09/05 05:59:56;;;;;;;21.15;8.82;;;;;;;;;;6179933;23;20176;-92
2021/09/05 06:03:01;;;;;;;16.73;8.55;;;;;;;;;;6179937;23;20172;-93
2021/09/05 06:06:06;;;;;;;22.88;9.15;;;;;;;;;;6179545;23;20239;-93
2021/09/05 06:09:13;;;;;;;19.95;8.38;;;;;;;;;;6166883;23;20188;-92
2021/09/05 06:12:18;;;;;;;17.00;8.70;;;;;;;;;;6167701;23;20172;-91
2021/09/05 06:15:23;;;;;;;14.95;8.48;;;;;;;;;;6166837;23;20227;-91
2021/09/05 06:18:28;;;;;;;16.27;8.52;;;;;;;;;;6166680;23;20172;-91
2021/09/05 06:21:33;;;;;;;16.83;9.95;;;;;;;;;;6166062;23;20217;-91
2021/09/05 06:24:39;;;;;;;14.35;8.73;;;;;;;;;;6167109;23;20164;-93
2021/09/05 06:27:44;;;;;;;15.90;8.93;;;;;;;;;;6166470;23;20230;-91
2021/09/05 06:30:49;;;;;;;15.07;8.77;;;;;;;;;;6166603;23;20168;-92
2021/09/05 06:33:55;;;;;;;17.17;9.55;;;;;;;;;;6165052;23;20214;-90
2021/09/05 06:36:59;;;;;;;15.35;8.93;;;;;;;;;;6165825;23;20168;-91
2021/09/05 06:40:07;;;;;;;17.80;9.18;;;;;;;;;;6166745;23;20169;-91
2021/09/05 06:43:12;;;;;;;15.13;8.55;;;;;;;;;;6166217;23;20600;-91
2021/09/05 06:46:16;;;;;;;15.48;8.38;;;;;;;;;;6166495;23;20168;-91
2021/09/05 06:49:22;;;;;;;14.88;8.75;;;;;;;;;;6166666;23;20168;-93
2021/09/05 06:52:26;;;;;;;15.27;8.60;;;;;;;;;;6165122;23;20168;-90
2021/09/05 06:55:33;;;;;;;14.70;8.57;;;;;;;;;;6166660;23;20176;-92
2021/09/05 06:58:39;;;;;;;14.18;7.43;;;;;;;;;;6165972;23;20168;-92
2021/09/05 07:01:44;;;;;;;11.27;6.93;;;;;;;;;;6167244;23;20272;-92
2021/09/05 07:04:49;;;;;;;12.55;7.40;;;;;;;;;;6166338;23;20171;-93
2021/09/05 07:07:54;;;;;;;10.95;6.50;;;;;;;;;;6165900;23;20650;-93
2021/09/05 07:11:01;;;;;;;11.45;6.53;;;;;;;;;;6167443;23;20219;-93
2021/09/05 07:14:05;;;;;;;10.07;6.35;;;;;;;;;;6168711;23;20245;-94
2021/09/05 07:17:11;;;;;;;12.10;6.50;;;;;;;;;;6168727;23;20243;-92
2021/09/05 07:20:16;;;;;;;8.75;6.05;;;;;;;;;;6166746;23;20164;-91
2021/09/05 07:23:21;;;;;;;11.77;5.90;;;;;;;;;;6167999;23;20188;-93
2021/09/05 07:26:27;;;;;;;8.07;5.43;;;;;;;;;;6166659;23;20608;-93
2021/09/05 07:29:32;;;;;;;10.57;6.07;;;;;;;;;;6166577;23;20159;-92
2021/09/05 07:32:37;;;;;;;10.70;6.10;;;;;;;;;;6166867;23;20180;-94
2021/09/05 07:35:43;;;;;;;8.55;5.78;;;;;;;;;;6166674;23;20199;-92
2021/09/05 07:38:48;;;;;;;10.38;5.55;;;;;;;;;;6167001;23;20167;-93
2021/09/05 07:41:54;;;;;;;8.93;5.60;;;;;;;;;;6167221;23;20172;-94
2021/09/05 07:44:59;;;;;;;8.23;5.78;;;;;;;;;;6167458;23;20168;-92
2021/09/05 07:48:05;;;;;;;7.82;5.82;;;;;;;;;;6169037;23;20181;-93
2021/09/05 07:51:11;;;;;;;11.85;5.93;;;;;;;;;;6168147;23;20177;-92
2021/09/05 07:54:16;;;;;;;8.02;5.30;;;;;;;;;;6167123;23;20351;-93
2021/09/05 07:57:22;;;;;;;10.77;5.97;;;;;;;;;;6166424;23;20240;-92
2021/09/05 08:00:27;;;;;;;8.40;5.15;;;;;;;;;;6166817;23;20304;-91
2021/09/05 08:03:37;;;;;;;9.95;5.25;;;;;;;;;;6166620;23;20169;-91
2021/09/05 08:06:42;;;;;;;9.63;5.60;;;;;;;;;;6166745;23;20204;-92
2021/09/05 08:09:47;;;;;;;9.55;5.80;;;;;;;;;;6179975;23;20215;-92
2021/09/05 08:12:53;;;;;;;12.93;5.65;;;;;;;;;;6179077;23;20179;-91
2021/09/05 08:16:00;;;;;;;8.30;5.13;;;;;;;;;;6177761;23;20240;-94
2021/09/05 08:19:06;;;;;;;8.45;6.05;;;;;;;;;;6178599;23;20175;-92
2021/09/05 08:22:11;;;;;;;7.97;4.93;;;;;;;;;;6179642;23;20191;-91
2021/09/05 08:25:16;;;;;;;7.97;5.38;;;;;;;;;;6178469;23;20620;-93
2021/09/05 08:28:23;;;;;;;7.35;5.15;;;;;;;;;;6179217;23;20172;-90
2021/09/05 08:31:28;;;;;;;8.15;5.90;;;;;;;;;;6180274;23;20166;-93
2021/09/05 08:34:35;;;;;;;7.57;5.25;;;;;;;;;;6181692;23;20167;-92
2021/09/05 08:37:43;;;;;;;8.55;5.20;;;;;;;;;;6179418;23;20515;-94
2021/09/05 08:40:51;;;;;;;8.18;5.03;;;;;;;;;;6177188;23;20246;-93
2021/09/05 08:43:59;;;;;;;7.75;5.38;;;;;;;;;;6181222;23;20168;-91
2021/09/05 08:47:05;;;;;;;7.95;5.10;;;;;;;;;;6181783;23;20618;-93
2021/09/05 08:50:10;;;;;;;9.75;5.25;;;;;;;;;;6179597;23;20175;-91
2021/09/05 08:53:17;;;;;;;9.88;5.28;;;;;;;;;;6181426;23;20226;-94
2021/09/05 08:56:29;;;;;;;10.20;5.38;;;;;;;;;;6182064;23;20269;-93
2021/09/05 08:59:37;;;;;;;7.32;5.03;;;;;;;;;;6182117;23;20172;-91
2021/09/05 09:02:49;;;;;;;8.80;5.30;;;;;;;;;;6181365;23;20207;-93
2021/09/05 09:05:56;;;;;;;9.00;5.38;;;;;;;;;;6179821;23;20171;-92
2021/09/05 09:09:03;;;;;;;6.70;4.68;;;;;;;;;;6180770;23;20642;-92
2021/09/05 09:12:08;;;;;;;6.22;4.47;;;;;;;;;;6179616;23;20167;-94
2021/09/05 09:15:35;;;;;;;8.88;5.10;;;;;;;;;;6180490;23;20270;-93
2021/09/05 09:18:43;;;;;;;8.07;4.72;;;;;;;;;;6180159;23;20299;-94
2021/09/05 09:21:48;;;;;;;11.15;5.75;;;;;;;;;;6181204;23;20171;-93
2021/09/05 09:25:01;;;;;;;10.38;5.20;;;;;;;;;;6181072;23;20171;-92
2021/09/05 09:28:23;;;;;;;7.13;4.85;;;;;;;;;;6180366;23;20218;-92
2021/09/05 09:31:30;;;;;;;8.00;5.05;;;;;;;;;;6189484;23;20181;-93
2021/09/05 11:32:01;;;;;;;8.98;5.10;;;;;;;;;;6171411;23;20215;-91
2021/09/05 11:35:09;;;;;;;7.25;5.13;;;;;;;;;;6178994;23;20206;-92
2021/09/05 11:38:15;;;;;;;8.85;5.05;;;;;;;;;;6181530;23;20183;-92
2021/09/05 11:41:29;;;;;;;6.22;4.75;;;;;;;;;;6181734;23;20227;-91
2021/09/05 11:44:36;;;;;;;7.15;4.85;;;;;;;;;;6180727;23;20195;-92
2021/09/05 11:47:44;;;;;;;7.43;4.90;;;;;;;;;;6180135;23;20282;-93
2021/09/05 11:50:49;;;;;;;6.95;5.25;;;;;;;;;;6180464;23;20167;-92
2021/09/05 11:53:59;;;;;;;9.15;4.78;;;;;;;;;;6180494;23;20178;-92
2021/09/05 11:57:11;;;;;;;8.02;5.35;;;;;;;;;;6179784;23;20199;-91
2021/09/05 12:00:24;;;;;;;7.10;4.65;;;;;;;;;;6180598;23;20250;-91
2021/09/05 12:03:36;;;;;;;9.07;5.90;;;;;;;;;;6182654;23;20171;-91
2021/09/05 12:06:42;;;;;;;6.32;4.80;;;;;;;;;;6181084;23;20180;-91
2021/09/05 12:09:50;;;;;;;10.00;5.00;;;;;;;;;;6180576;23;20167;-90
2021/09/05 12:13:02;;;;;;;9.48;5.20;;;;;;;;;;6177932;23;20211;-91
2021/09/05 12:16:20;;;;;;;8.75;4.90;;;;;;;;;;6181343;23;20194;-92
2021/09/05 12:19:26;;;;;;;7.45;4.57;;;;;;;;;;6183466;23;20215;-92
2021/09/05 12:22:41;;;;;;;7.25;4.82;;;;;;;;;;6179122;23;20190;-91
2021/09/05 12:25:47;;;;;;;7.40;4.80;;;;;;;;;;6178748;23;20175;-89
2021/09/05 12:28:58;;;;;;;6.85;4.97;;;;;;;;;;6180547;23;20171;-91
2021/09/05 12:32:04;;;;;;;6.75;4.75;;;;;;;;;;6167222;23;20512;-91
2021/09/05 12:35:28;;;;;;;8.60;4.97;;;;;;;;;;6166913;23;20167;-90
2021/09/05 12:38:34;;;;;;;8.75;5.40;;;;;;;;;;6165978;23;20195;-90
2021/09/05 12:41:43;;;;;;;8.20;4.93;;;;;;;;;;6168137;23;20175;-91
2021/09/05 12:44:49;;;;;;;7.85;4.82;;;;;;;;;;6170195;23;20280;-91
2021/09/05 12:48:10;;;;;;;7.53;4.93;;;;;;;;;;6167212;23;20167;-91
2021/09/05 12:51:18;;;;;;;8.27;5.20;;;;;;;;;;6165608;23;20160;-92
2021/09/05 12:54:26;;;;;;;7.47;4.40;;;;;;;;;;6169185;23;20175;-90
2021/09/05 12:57:32;;;;;;;7.78;4.38;;;;;;;;;;6171345;23;20663;-91
2021/09/05 13:00:39;;;;;;;7.63;4.82;;;;;;;;;;6173032;23;20171;-91
2021/09/05 13:03:45;;;;;;;8.73;6.22;;;;;;;;;;6168350;23;20171;-91
2021/09/05 13:06:52;;;;;;;8.73;4.88;;;;;;;;;;6169013;23;20236;-92
2021/09/05 13:10:04;;;;;;;9.52;5.90;;;;;;;;;;6169219;23;20172;-91
2021/09/05 13:13:11;;;;;;;6.32;4.65;;;;;;;;;;6168718;23;20163;-90
2021/09/05 13:16:16;;;;;;;6.72;4.80;;;;;;;;;;6167478;23;20195;-91
2021/09/05 13:19:22;;;;;;;6.70;4.80;;;;;;;;;;6171626;23;20219;-92
2021/09/05 13:22:30;;;;;;;9.43;5.53;;;;;;;;;;6176056;23;20172;-91
2021/09/05 13:25:35;;;;;;;6.28;4.40;;;;;;;;;;6172628;23;20189;-91
2021/09/05 13:28:41;;;;;;;7.25;4.80;;;;;;;;;;6170970;23;20505;-94
2021/09/05 13:31:51;;;;;;;7.93;4.80;;;;;;;;;;6168631;23;20548;-93
2021/09/05 13:34:57;;;;;;;7.78;4.50;;;;;;;;;;6169007;23;20231;-92
2021/09/05 13:38:04;;;;;;;8.73;4.75;;;;;;;;;;6169412;23;20315;-92
2021/09/05 13:41:10;;;;;;;9.05;4.88;;;;;;;;;;6168545;23;20168;-91
2021/09/05 13:44:17;;;;;;;7.60;4.90;;;;;;;;;;6168013;23;20639;-92
2021/09/05 13:47:25;;;;;;;6.35;4.45;;;;;;;;;;6174683;23;20195;-89
2021/09/05 13:50:33;;;;;;;8.13;5.00;;;;;;;;;;6174166;23;20208;-93
2021/09/05 13:53:40;;;;;;;7.10;5.25;;;;;;;;;;6169459;23;20171;-92
2021/09/05 13:56:47;;;;;;;10.38;5.20;;;;;;;;;;6173452;23;20191;-90
2021/09/05 13:59:52;;;;;;;8.25;4.72;;;;;;;;;;6173404;23;20223;-92
2021/09/05 14:02:57;;;;;;;8.70;4.63;;;;;;;;;;6171832;23;20193;-91
2021/09/05 14:06:03;;;;;;;6.90;4.38;;;;;;;;;;6151679;23;20187;-92
2021/09/05 14:09:14;;;;;;;8.55;4.95;;;;;;;;;;6171693;23;20155;-92
2021/09/05 14:12:23;;;;;;;7.70;5.05;;;;;;;;;;6170261;23;20172;-92
2021/09/05 14:15:28;;;;;;;7.20;4.85;;;;;;;;;;6170791;23;20172;-90
2021/09/05 14:18:34;;;;;;;7.22;4.97;;;;;;;;;;6169004;23;20176;-90
2021/09/05 14:21:39;;;;;;;7.40;4.93;;;;;;;;;;6169650;23;20171;-90
2021/09/05 14:24:46;;;;;;;5.82;4.50;;;;;;;;;;6169226;23;20243;-91
2021/09/05 14:27:55;;;;;;;7.20;4.85;;;;;;;;;;6169711;23;20167;-90
2021/09/05 14:31:06;;;;;;;8.85;4.65;;;;;;;;;;6175091;23;20247;-92
2021/09/05 14:38:05;;;;;;;8.23;5.47;;;;;;;;;;6181267;23;20187;-91
2021/09/05 14:48:07;;;;;;;12.77;5.72;;;;;;;;;;6181144;23;20203;-91
2021/09/05 22:01:28;;;;;;;14.32;8.18;;;;;;;;;;6134006;22;1340738;-91
2021/09/05 22:04:33;;;;;;;15.57;8.23;;;;;;;;;;6149670;23;20244;-90
2021/09/05 22:07:38;;;;;;;14.25;7.75;;;;;;;;;;6148346;23;20165;-90
2021/09/05 22:10:45;;;;;;;15.25;8.90;;;;;;;;;;6149219;23;20623;-90
2021/09/05 22:13:50;;;;;;;16.58;8.73;;;;;;;;;;6148403;23;20167;-89
2021/09/05 22:16:57;;;;;;;15.60;8.43;;;;;;;;;;6149582;23;20192;-90
2021/09/05 22:20:02;;;;;;;19.95;8.88;;;;;;;;;;6150011;23;20188;-91
2021/09/05 22:23:07;;;;;;;14.07;7.97;;;;;;;;;;6149018;23;20168;-90
2021/09/05 22:26:15;;;;;;;15.85;7.90;;;;;;;;;;6148706;23;20165;-91
2021/09/05 22:29:21;;;;;;;16.80;8.20;;;;;;;;;;6148033;23;20176;-90
2021/09/05 22:32:27;;;;;;;15.65;8.73;;;;;;;;;;6148722;23;20176;-91
2021/09/05 22:35:33;;;;;;;15.40;8.60;;;;;;;;;;6148890;23;20172;-89
2021/09/05 22:38:38;;;;;;;15.02;8.20;;;;;;;;;;6148379;23;20173;-91
2021/09/05 22:41:46;;;;;;;16.20;8.68;;;;;;;;;;6149794;23;20176;-90
2021/09/05 22:44:51;;;;;;;14.60;8.65;;;;;;;;;;6150261;23;20171;-91
2021/09/05 22:47:58;;;;;;;14.88;8.40;;;;;;;;;;6148016;23;20732;-89
2021/09/05 22:51:04;;;;;;;20.27;10.10;;;;;;;;;;6147960;23;20172;-90
2021/09/05 22:54:09;;;;;;;23.52;9.10;;;;;;;;;;6148271;23;20172;-91
2021/09/05 22:57:17;;;;;;;14.68;8.25;;;;;;;;;;6147377;23;20211;-91
2021/09/05 23:00:22;;;;;;;15.68;8.82;;;;;;;;;;6148322;23;20168;-92
2021/09/05 23:03:29;;;;;;;19.52;9.55;;;;;;;;;;6147355;23;20227;-89
2021/09/05 23:06:34;;;;;;;19.85;8.77;;;;;;;;;;6148767;23;20225;-92
2021/09/05 23:09:39;;;;;;;18.95;8.90;;;;;;;;;;6149023;23;20248;-91
2021/09/05 23:12:44;;;;;;;16.52;9.35;;;;;;;;;;6148751;23;20168;-91
2021/09/05 23:15:48;;;;;;;18.80;9.75;;;;;;;;;;6148131;23;20189;-89
2021/09/05 23:18:57;;;;;;;17.63;8.93;;;;;;;;;;6150195;23;20168;-91
2021/09/05 23:22:02;;;;;;;17.13;9.65;;;;;;;;;;6150512;23;20177;-89
2021/09/05 23:25:07;;;;;;;17.23;8.82;;;;;;;;;;6149689;23;20245;-89
2021/09/05 23:28:13;;;;;;;16.75;8.85;;;;;;;;;;6149740;23;20229;-90
2021/09/05 23:31:18;;;;;;;19.20;9.55;;;;;;;;;;6149586;23;20239;-91
2021/09/05 23:34:27;;;;;;;18.38;10.10;;;;;;;;;;6149746;23;20402;-91
2021/09/05 23:37:32;;;;;;;16.55;9.18;;;;;;;;;;6149943;23;20192;-87
2021/09/05 23:40:37;;;;;;;20.33;9.88;;;;;;;;;;6149189;23;20624;-92
2021/09/05 23:43:42;;;;;;;16.35;9.20;;;;;;;;;;6149823;23;20160;-90
2021/09/05 23:46:47;;;;;;;20.33;9.65;;;;;;;;;;6152037;23;20172;-89
2021/09/05 23:49:56;;;;;;;17.45;9.63;;;;;;;;;;6153645;23;20177;-91
2021/09/05 23:53:01;;;;;;;17.35;9.40;;;;;;;;;;6150340;23;20316;-90
2021/09/05 23:56:06;;;;;;;18.70;9.93;;;;;;;;;;6150911;23;20153;-91
2021/09/05 23:59:11;;;;;;;17.67;9.10;;;;;;;;;;6148929;23;20183;-89
